DAUL/LOO METAR and TAF weather

Enter ICAO airport designator
Station Type Date Time Source
DAUL METAR 2018/04/23 11:00 UTC NOAA

DAUL 231100Z 13016KT CAVOK 28/M01 Q1019


Station Type Date Time Source
DAUL Decoded METAR 2018/04/23 11:00 UTC NOAA

Laghouat, Algeria (DAUL) 33-46N 002-56E 765M
Apr 23, 2018 - 07:00 AM EDT / 2018.04.23 1100 UTC
Wind: from the SE (130 degrees) at 18 MPH (16 KT):0
Visibility: greater than 7 mile(s):0
Temperature: 82 F (28 C)
Dew Point: 30 F (-1 C)
Relative Humidity: 15%
Pressure (altimeter): 30.09 in. Hg (1019 hPa)
ob: DAUL 231100Z 13016KT CAVOK 28/M01 Q1019
cycle: 11

Station Type Date Time Source
DAUL TAF 2017/11/09 18:03 UTC NOAA

TAF DAUL 091700Z 0918/1009 02012KT 9999 SCT030 SCT100 PROB40
TEMPO 0918/0924 35020G30KT 4000 -TSRA FEW030CB


Example: see airport list